Latest Weather Observations for Walpole North

IDW60801

Issued at 2:03 pm WST Wednesday 26 April 2017 (issued every 30 minutes, with the page automatically refreshed every 10 minutes)

About weather observations | Map of weather stations | Latest weather observations for WA | Other Formats
Station Details ID: 009998 Name: NORTH WALPOLE Lat: -34.95 Lon: 116.72 Height: 73.0 m
Data from the previous 72 hours. | See also: Recent months at Walpole North
Date/Time
WST
Temp
°C
App
Temp
°C
Dew
Point
°C
Rel
Hum
%
Delta-T
°C
Wind Press
QNH
hPa
Press
MSL
hPa
Rain since
9am
mm
Dir  Spd
km/h
Gust
km/h
Spd
kts
Gust
kts
26/02:00pm 18.9 18.0 12.6 67 3.5 S 9 11 5 6 1026.3 1026.3 -
26/01:30pm 20.4 20.4 12.4 60 4.5 NE 4 11 2 6 1026.4 1026.3 0.0
26/01:00pm 19.8 19.2 11.6 59 4.5 NNW 6 9 3 5 1026.6 1026.5 0.0
26/12:30pm 18.9 18.4 12.2 65 3.7 NE 6 7 3 4 1027.0 1026.9 0.0
26/12:00pm 18.7 18.2 12.5 67 3.5 WSW 7 11 4 6 1027.4 1027.3 0.0
26/11:30am 18.6 18.3 12.6 68 3.4 W 6 11 3 6 1027.7 1027.6 0.0
26/11:00am 17.1 16.6 12.0 72 2.8 NW 6 11 3 6 1027.9 1027.8 0.0
26/10:30am 17.1 15.6 13.0 77 2.3 NW 13 15 7 8 1028.0 1027.9 0.0
26/10:00am 15.9 14.2 12.6 81 1.8 NW 13 17 7 9 1028.2 1028.1 0.0
26/09:30am 15.1 14.3 14.0 93 0.6 NW 11 17 6 9 1028.3 1028.2 0.0
26/09:00am 14.4 14.1 14.4 100 0.0 NW 9 13 5 7 1028.2 1028.1 0.2
26/08:30am 12.4 13.2 12.4 100 0.0 CALM 0 0 0 0 1028.1 1028.0 0.2
26/08:00am 12.3 13.0 12.3 100 0.0 CALM 0 0 0 0 1027.8 1027.7 0.2
26/07:30am 10.3 10.4 10.3 100 0.0 CALM 0 0 0 0 1027.5 1027.4 0.2
26/07:00am 10.1 10.2 10.1 100 0.0 CALM 0 6 0 3 1027.2 1027.1 0.2
26/06:30am 10.3 10.1 10.3 100 0.0 SW 2 6 1 3 1027.1 1027.0 0.2
26/06:00am 10.0 10.1 10.0 100 0.0 CALM 0 0 0 0 1027.3 1027.2 0.2
26/05:30am 10.1 10.2 10.1 100 0.0 CALM 0 0 0 0 1027.3 1027.2 0.2
26/05:00am 10.5 10.7 10.5 100 0.0 CALM 0 6 0 3 1027.3 1027.2 0.2
26/04:30am 10.4 9.8 10.4 100 0.0 SW 4 9 2 5 1027.3 1027.2 0.2
26/04:00am 9.7 9.7 9.7 100 0.0 CALM 0 0 0 0 1027.3 1027.2 0.2
26/03:30am 10.5 10.7 10.5 100 0.0 CALM 0 6 0 3 1027.3 1027.2 0.2
26/03:00am 10.7 10.6 10.7 100 0.0 SW 2 6 1 3 1027.4 1027.3 0.2
26/02:30am 10.7 10.9 10.7 100 0.0 CALM 0 0 0 0 1027.6 1027.5 0.2
26/02:00am 9.8 9.8 9.8 100 0.0 CALM 0 0 0 0 1027.7 1027.6 0.2
26/01:30am 9.7 9.3 9.6 99 0.1 SW 2 6 1 3 1027.4 1027.3 0.2
26/01:00am 10.1 10.2 10.0 99 0.1 CALM 0 0 0 0 1027.4 1027.3 0.2
26/12:30am 10.6 10.0 10.4 99 0.1 SW 4 6 2 3 1027.5 1027.4 0.2
26/12:00am 10.8 11.0 10.6 99 0.1 CALM 0 0 0 0 1027.3 1027.2 0.2
 
Date/Time
WST
Temp
°C
App
Temp
°C
Dew
Point
°C
Rel
Hum
%
Delta-T
°C
Wind Press
QNH
hPa
Press
MSL
hPa
Rain since
9am
mm
Dir  Spd
km/h
Gust
km/h
Spd
kts
Gust
kts
25/11:30pm 10.7 10.9 10.5 99 0.1 CALM 0 0 0 0 1027.2 1027.1 0.2
25/11:00pm 11.0 10.9 10.8 99 0.1 SW 2 6 1 3 1027.1 1027.0 0.2
25/10:30pm 11.2 11.4 10.7 97 0.3 CALM 0 0 0 0 1027.1 1027.0 0.2
25/10:00pm 11.5 11.7 10.7 95 0.4 CALM 0 0 0 0 1027.0 1026.9 0.2
25/09:30pm 11.8 12.0 10.7 93 0.6 CALM 0 0 0 0 1027.0 1026.9 0.2
25/09:00pm 12.3 12.7 11.2 93 0.6 CALM 0 0 0 0 1027.0 1026.9 0.2
25/08:30pm 12.4 12.4 11.1 92 0.7 SW 2 6 1 3 1027.0 1026.9 0.2
25/08:00pm 12.7 11.9 11.1 90 0.8 SW 6 7 3 4 1026.9 1026.8 0.2
25/07:30pm 13.2 12.5 11.4 89 1.0 SW 6 7 3 4 1026.8 1026.7 0.2
25/07:00pm 13.4 12.6 11.1 86 1.2 SW 6 6 3 3 1026.7 1026.6 0.2
25/06:30pm 13.9 14.3 11.1 83 1.5 CALM 0 0 0 0 1026.5 1026.4 0.2
25/06:00pm 15.0 14.1 11.4 79 1.9 SW 7 11 4 6 1026.2 1026.1 0.2
25/05:30pm 16.1 15.3 11.7 75 2.4 SW 7 9 4 5 1026.1 1026.0 0.2
25/05:00pm 17.3 16.3 12.2 72 2.8 SSW 9 13 5 7 1025.9 1025.8 0.2
25/04:30pm 17.5 15.7 12.2 71 2.9 SW 13 22 7 12 1025.8 1025.7 0.2
25/04:00pm 18.6 17.1 13.0 70 3.1 SW 13 17 7 9 1025.5 1025.4 0.2
25/03:30pm 17.9 16.8 13.0 73 2.8 SSE 11 15 6 8 1025.3 1025.2 0.2
25/03:00pm 17.6 17.2 13.1 75 2.5 SSE 7 15 4 8 1025.1 1025.0 0.2
25/02:30pm 18.0 17.3 13.1 73 2.8 SSE 9 13 5 7 1024.7 1024.6 0.2
25/02:00pm 17.5 16.6 12.6 73 2.7 SSE 9 17 5 9 1024.7 1024.6 0.2
25/01:30pm 17.9 17.3 13.4 75 2.6 SSE 9 17 5 9 1024.8 1024.7 0.2
25/01:00pm 17.9 17.2 13.2 74 2.6 S 9 15 5 8 1025.1 1025.0 0.2
25/12:30pm 17.2 16.7 13.7 80 2.0 S 9 17 5 9 1025.4 1025.3 0.2
25/12:00pm 18.3 18.3 14.2 77 2.4 S 7 13 4 7 1025.7 1025.6 0.2
25/11:30am 18.9 19.0 15.4 80 2.1 WSW 9 15 5 8 1025.9 1025.8 0.0
25/11:00am 18.0 16.4 14.9 82 1.8 WNW 17 22 9 12 1026.1 1026.0 0.0
25/10:30am 17.5 16.6 13.8 79 2.1 W 11 20 6 11 1026.3 1026.2 0.0
25/10:00am 17.3 16.0 13.6 79 2.1 WNW 13 17 7 9 1026.2 1026.1 0.0
25/09:30am 16.3 15.6 13.2 82 1.7 W 9 11 5 6 1026.2 1026.1 0.0
25/09:00am 15.1 14.9 13.1 88 1.1 WNW 6 9 3 5 1026.2 1026.1 1.0
25/08:30am 14.0 13.6 12.4 90 0.9 WNW 6 9 3 5 1025.9 1025.8 1.0
25/08:00am 13.0 12.5 12.1 94 0.5 NW 6 7 3 4 1025.8 1025.7 1.0
25/07:30am 10.9 9.3 10.3 96 0.3 NW 9 11 5 6 1025.7 1025.6 1.0
25/07:00am 10.1 9.2 9.3 95 0.4 NW 4 9 2 5 1025.4 1025.3 1.0
25/06:30am 10.0 9.0 8.8 92 0.6 NW 4 6 2 3 1025.1 1025.0 1.0
25/06:00am 10.8 9.6 9.6 92 0.6 NW 6 11 3 6 1024.9 1024.8 1.0
25/05:30am 10.5 9.3 9.4 93 0.6 NW 6 9 3 5 1024.8 1024.7 1.0
25/05:00am 10.6 9.4 9.4 92 0.6 WNW 6 7 3 4 1024.6 1024.5 1.0
25/04:30am 10.6 10.4 9.2 91 0.7 CALM 0 6 0 3 1024.4 1024.3 1.0
25/04:00am 10.9 10.9 9.7 92 0.6 CALM 0 6 0 3 1024.2 1024.1 1.0
25/03:30am 10.5 9.2 9.3 92 0.6 WNW 6 11 3 6 1024.2 1024.1 1.0
25/03:00am 10.4 9.1 9.2 92 0.6 NW 6 9 3 5 1024.4 1024.3 1.0
25/02:30am 9.7 8.2 8.3 91 0.7 SW 6 9 3 5 1024.5 1024.4 1.0
25/02:00am 9.8 9.4 8.1 89 0.8 CALM 0 6 0 3 1024.3 1024.2 1.0
25/01:30am 10.1 9.6 8.0 87 1.0 CALM 0 6 0 3 1024.3 1024.2 1.0
25/01:00am 10.3 8.7 8.1 86 1.1 SW 6 7 3 4 1024.3 1024.2 1.0
25/12:30am 10.4 9.9 7.8 84 1.3 CALM 0 6 0 3 1024.4 1024.3 1.0
25/12:00am 10.4 8.8 8.0 85 1.2 SW 6 7 3 4 1024.2 1024.1 1.0
 
Date/Time
WST
Temp
°C
App
Temp
°C
Dew
Point
°C
Rel
Hum
%
Delta-T
°C
Wind Press
QNH
hPa
Press
MSL
hPa
Rain since
9am
mm
Dir  Spd
km/h
Gust
km/h
Spd
kts
Gust
kts
24/11:30pm 10.2 8.5 8.3 88 0.9 SSW 7 9 4 5 1024.5 1024.4 1.0
24/11:00pm 10.1 8.7 8.7 91 0.7 SSW 6 7 3 4 1024.6 1024.5 1.0
24/10:30pm 10.5 9.1 8.8 89 0.8 SSW 6 9 3 5 1024.7 1024.6 1.0
24/10:00pm 10.7 9.3 9.0 89 0.8 SSW 6 7 3 4 1024.4 1024.3 1.0
24/09:30pm 10.9 9.5 9.0 88 0.9 SSW 6 7 3 4 1024.5 1024.4 1.0
24/09:00pm 11.3 9.9 9.0 86 1.1 SSW 6 9 3 5 1024.3 1024.2 1.0
24/08:30pm 11.8 10.9 9.2 84 1.3 SSW 4 9 2 5 1024.2 1024.1 1.0
24/08:00pm 12.1 10.8 9.3 83 1.4 SSW 6 9 3 5 1024.0 1023.9 1.0
24/07:30pm 12.1 10.7 8.9 81 1.6 SSW 6 7 3 4 1024.1 1024.0 1.0
24/07:00pm 13.2 11.8 9.5 78 1.9 SSW 7 9 4 5 1024.1 1024.0 1.0
24/06:30pm 14.2 12.6 10.2 77 2.1 SSW 9 15 5 8 1023.8 1023.7 1.0
24/06:00pm 14.6 13.3 11.2 80 1.8 SW 9 13 5 7 1023.6 1023.5 1.0
24/05:30pm 15.0 13.6 11.0 77 2.1 SSW 9 15 5 8 1023.5 1023.4 1.0
24/05:00pm 15.5 14.2 11.1 75 2.3 SSW 9 15 5 8 1023.1 1023.0 1.0
24/04:30pm 15.9 14.1 10.7 71 2.8 S 11 19 6 10 1022.9 1022.7 1.0
24/04:00pm 16.7 15.3 10.8 68 3.2 S 9 15 5 8 1022.9 1022.7 1.0
24/03:30pm 15.8 15.2 11.6 76 2.3 SSE 6 13 3 7 1022.8 1022.6 1.0
24/03:00pm 15.6 15.3 12.7 83 1.6 S 6 9 3 5 1022.7 1022.5 1.0
24/02:30pm 15.1 15.5 13.6 91 0.8 WSW 4 9 2 5 1022.8 1022.6 1.0
24/02:00pm 14.8 14.7 13.3 91 0.8 SSE 6 11 3 6 1022.9 1022.7 1.0
24/01:30pm 14.8 12.8 12.8 88 1.1 SE 15 20 8 11 1022.8 1022.6 0.8
24/01:00pm 15.5 14.8 15.3 99 0.1 SE 13 20 7 11 1022.9 1022.7 0.8
24/12:30pm 14.6 13.2 14.4 99 0.1 SSE 15 22 8 12 1023.4 1023.3 0.8
24/12:00pm 14.9 14.0 14.9 100 0.0 SE 13 19 7 10 1023.6 1023.5 0.8
24/11:30am 15.0 14.2 15.0 100 0.0 SSE 13 19 7 10 1024.0 1023.9 0.8
24/11:00am 14.9 14.4 14.9 100 0.0 SE 11 15 6 8 1024.3 1024.2 0.8
24/10:30am 14.4 13.3 14.4 100 0.0 SSE 13 19 7 10 1024.5 1024.4 0.6
24/10:00am 14.5 14.2 14.5 100 0.0 SE 9 13 5 7 1024.5 1024.4 0.2
24/09:30am 14.5 14.2 14.5 100 0.0 SSE 9 15 5 8 1024.6 1024.5 0.0
24/09:00am 14.7 14.5 14.7 100 0.0 SSW 9 13 5 7 1024.6 1024.5 1.2
24/08:30am 14.9 14.8 14.9 100 0.0 WNW 9 11 5 6 1024.2 1024.1 1.2
24/08:00am 14.8 16.0 14.8 100 0.0 N 2 7 1 4 1023.9 1023.8 1.2
24/07:30am 14.4 15.4 14.4 100 0.0 NNW 2 7 1 4 1023.8 1023.7 1.2
24/07:00am 14.0 14.1 14.0 100 0.0 NE 6 7 3 4 1023.6 1023.5 1.2
24/06:30am 12.9 12.7 12.9 100 0.0 NE 6 7 3 4 1023.4 1023.3 1.2
24/06:00am 13.9 15.1 13.9 100 0.0 CALM 0 0 0 0 1023.1 1023.0 1.2
24/05:30am 14.1 15.4 14.1 100 0.0 CALM 0 0 0 0 1023.1 1023.0 1.2
24/05:00am 14.0 15.3 14.0 100 0.0 CALM 0 0 0 0 1023.2 1023.1 1.2
24/04:30am 14.1 15.4 14.1 100 0.0 CALM 0 0 0 0 1023.1 1023.0 1.2
24/04:00am 14.1 15.4 14.1 100 0.0 CALM 0 0 0 0 1023.1 1023.0 1.2
24/03:30am 14.0 15.3 14.0 100 0.0 CALM 0 0 0 0 1023.0 1022.8 1.2
24/03:00am 14.0 15.3 14.0 100 0.0 CALM 0 0 0 0 1023.2 1023.1 1.2
24/02:30am 14.0 15.3 14.0 100 0.0 CALM 0 0 0 0 1023.4 1023.3 1.2
24/02:00am 14.3 14.5 14.3 100 0.0 N 6 7 3 4 1023.6 1023.5 1.2
24/01:30am 14.4 15.1 14.4 100 0.0 ESE 4 7 2 4 1023.6 1023.5 1.2
24/01:00am 14.8 15.0 14.8 100 0.0 E 7 11 4 6 1023.5 1023.4 1.2
24/12:30am 14.9 15.2 14.9 100 0.0 E 7 11 4 6 1023.9 1023.8 1.2
24/12:00am 14.9 15.4 14.9 100 0.0 ESE 6 9 3 5 1024.0 1023.9 1.2
 
Date/Time
WST
Temp
°C
App
Temp
°C
Dew
Point
°C
Rel
Hum
%
Delta-T
°C
Wind Press
QNH
hPa
Press
MSL
hPa
Rain since
9am
mm
Dir  Spd
km/h
Gust
km/h
Spd
kts
Gust
kts
23/11:30pm 14.9 15.2 14.9 100 0.0 E 7 11 4 6 1024.2 1024.1 1.2
23/11:00pm 14.9 14.8 14.9 100 0.0 E 9 11 5 6 1024.4 1024.3 1.2
23/10:30pm 15.0 15.3 15.0 100 0.0 E 7 11 4 6 1024.7 1024.6 1.2
23/10:00pm 15.0 15.3 15.0 100 0.0 ESE 7 11 4 6 1025.0 1024.9 1.2
23/09:30pm 15.1 14.7 15.1 100 0.0 ESE 11 17 6 9 1025.1 1025.0 1.2
23/09:00pm 15.0 15.3 15.0 100 0.0 ENE 7 9 4 5 1025.0 1024.9 1.2
23/08:30pm 15.0 14.9 15.0 100 0.0 E 9 15 5 8 1024.9 1024.8 1.0
23/08:00pm 14.9 14.4 14.9 100 0.0 ESE 11 17 6 9 1024.9 1024.8 0.8
23/07:30pm 14.9 14.4 14.9 100 0.0 ESE 11 17 6 9 1024.8 1024.7 0.8
23/07:00pm 14.9 14.8 14.9 100 0.0 E 9 15 5 8 1024.7 1024.6 0.8
23/06:30pm 14.9 14.4 14.9 100 0.0 ESE 11 17 6 9 1024.4 1024.3 0.8
23/06:00pm 14.9 13.6 14.7 99 0.1 ESE 15 22 8 12 1024.2 1024.1 0.6
23/05:30pm 15.0 14.1 14.8 99 0.1 ESE 13 19 7 10 1024.4 1024.3 0.6
23/05:00pm 15.1 15.0 14.9 99 0.1 ESE 9 13 5 7 1024.2 1024.1 0.4
23/04:30pm 15.3 15.1 14.8 97 0.3 E 9 15 5 8 1024.1 1024.0 0.2
23/04:00pm 15.4 14.2 14.1 92 0.7 E 13 20 7 11 1024.2 1024.1 0.0
23/03:30pm 16.0 14.3 13.5 85 1.4 E 15 24 8 13 1024.1 1024.0 0.0
23/03:00pm 16.8 14.5 13.1 79 2.1 ESE 17 24 9 13 1023.9 1023.8 0.0
23/02:30pm 16.7 14.3 12.8 78 2.2 ESE 17 24 9 13 1023.8 1023.7 0.0

Other Formats:

Comma delimited format used in spreadsheet applications
http://www.bom.gov.au/fwo/IDW60801/IDW60801.95647.axf

JavaScript Object Notation format (JSON) in row-major order
http://www.bom.gov.au/fwo/IDW60801/IDW60801.95647.json